Time;durP1;ratioP1;P1;durP2;ratioP2;P2;SDS_P1;SDS_P2;PMS_P1;PMS_P2;Temp;Humidity;BMP_temperature;BMP_pressure;BME280_temperature;BME280_humidity;BME280_pressure;Samples;Min_cycle;Max_cycle;Signal;HPM_P1;HPM_P2
2023/08/04 00:02:05;;;;;;;5.53;3.28;;;20.60;99.90;;;;;;5028599;28;20029;-80
2023/08/04 00:04:31;;;;;;;5.38;3.15;;;20.70;99.90;;;;;;5027123;28;20567;-79
2023/08/04 00:06:56;;;;;;;7.40;2.60;;;20.80;99.90;;;;;;5028526;28;20562;-79
2023/08/04 00:09:22;;;;;;;6.07;3.03;;;20.80;99.90;;;;;;5027238;28;20504;-79
2023/08/04 00:11:47;;;;;;;5.35;2.42;;;20.80;99.90;;;;;;5028060;28;20022;-78
2023/08/04 00:14:13;;;;;;;5.25;3.13;;;20.90;99.90;;;;;;5028340;28;20041;-78
2023/08/04 00:16:39;;;;;;;5.18;3.00;;;21.00;99.90;;;;;;5027042;28;20032;-78
2023/08/04 00:19:05;;;;;;;7.47;3.05;;;21.00;99.90;;;;;;5028449;28;20100;-78
2023/08/04 00:21:30;;;;;;;5.80;2.60;;;21.00;99.90;;;;;;5026932;28;20095;-78
2023/08/04 00:23:59;;;;;;;6.53;2.60;;;21.00;99.90;;;;;;5028152;28;20371;-78
2023/08/04 00:26:25;;;;;;;6.57;3.10;;;21.00;99.90;;;;;;5028444;28;20040;-76
2023/08/04 00:28:51;;;;;;;10.95;3.38;;;21.00;99.90;;;;;;5030641;28;20521;-76
2023/08/04 00:31:16;;;;;;;5.47;2.78;;;21.00;99.90;;;;;;5031865;28;20486;-78
2023/08/04 00:33:42;;;;;;;5.38;3.00;;;21.00;99.90;;;;;;5030420;28;20033;-78
2023/08/04 00:36:08;;;;;;;5.53;2.72;;;21.00;99.90;;;;;;5031762;28;20033;-78
2023/08/04 00:38:33;;;;;;;6.00;2.70;;;21.10;99.90;;;;;;5031799;28;20045;-77
2023/08/04 00:40:59;;;;;;;5.20;2.70;;;21.00;99.90;;;;;;5031432;28;20044;-77
2023/08/04 00:43:24;;;;;;;5.45;2.72;;;21.00;99.90;;;;;;5031457;28;20030;-77
2023/08/04 00:45:50;;;;;;;4.00;2.42;;;21.00;99.90;;;;;;5031485;28;20528;-78
2023/08/04 00:48:16;;;;;;;5.63;2.63;;;21.00;99.90;;;;;;5031573;28;20165;-78
2023/08/04 00:50:42;;;;;;;6.53;3.60;;;21.00;99.90;;;;;;5031622;28;20383;-77
2023/08/04 00:53:09;;;;;;;8.50;4.70;;;21.00;99.90;;;;;;5031152;28;20034;-78
2023/08/04 00:55:35;;;;;;;11.15;4.72;;;20.90;99.90;;;;;;5030192;28;20033;-78
2023/08/04 00:58:01;;;;;;;9.80;4.70;;;20.80;99.90;;;;;;5031408;28;20040;-78
2023/08/04 01:00:27;;;;;;;10.75;4.63;;;20.70;99.90;;;;;;5031250;28;20033;-79
2023/08/04 01:02:53;;;;;;;7.65;4.40;;;20.60;99.90;;;;;;5031317;28;20033;-78
2023/08/04 01:05:19;;;;;;;11.85;4.72;;;20.60;99.90;;;;;;5031342;28;20533;-80
2023/08/04 01:08:01;;;;;;;11.15;5.07;;;20.50;99.90;;;;;;5031167;28;20060;-80
2023/08/04 01:10:35;;;;;;;10.50;5.40;;;20.50;99.90;;;;;;5030951;28;20033;-79
2023/08/04 01:13:05;;;;;;;9.80;5.07;;;20.40;99.90;;;;;;5031042;28;20048;-79
2023/08/04 01:15:31;;;;;;;13.50;4.60;;;20.40;99.90;;;;;;5030842;28;20030;-78
2023/08/04 01:17:58;;;;;;;9.65;4.40;;;20.40;99.90;;;;;;5031140;28;20028;-80
2023/08/04 01:20:27;;;;;;;9.98;5.03;;;20.30;99.90;;;;;;5031139;28;20040;-78
2023/08/04 01:22:53;;;;;;;13.05;5.32;;;20.40;99.90;;;;;;5030826;28;20107;-79
2023/08/04 01:25:24;;;;;;;8.00;4.60;;;20.40;99.90;;;;;;5030668;28;20041;-78
2023/08/04 01:27:58;;;;;;;9.85;5.63;;;20.40;99.90;;;;;;5030809;28;20026;-79
2023/08/04 01:30:26;;;;;;;6.90;5.05;;;20.40;99.90;;;;;;5030942;28;20128;-79
2023/08/04 01:32:51;;;;;;;8.73;5.40;;;20.30;99.90;;;;;;5030777;28;20586;-80
2023/08/04 01:35:17;;;;;;;8.65;5.70;;;20.40;99.90;;;;;;5030570;28;20202;-79
2023/08/04 01:37:44;;;;;;;16.15;7.38;;;20.40;99.90;;;;;;5030672;28;20148;-79
2023/08/04 01:40:11;;;;;;;12.20;6.50;;;20.20;99.90;;;;;;5030511;28;20087;-79
2023/08/04 01:42:36;;;;;;;11.00;5.32;;;20.10;99.90;;;;;;5030076;28;20029;-78
2023/08/04 01:45:02;;;;;;;6.85;3.97;;;20.00;99.90;;;;;;5030597;28;20033;-79
2023/08/04 01:47:28;;;;;;;6.95;4.70;;;20.00;99.90;;;;;;5030284;28;20032;-79
2023/08/04 01:49:54;;;;;;;6.10;3.47;;;19.90;99.90;;;;;;5030225;28;20046;-78
2023/08/04 01:52:20;;;;;;;9.35;4.05;;;19.80;99.90;;;;;;5030372;28;20115;-80
2023/08/04 01:54:46;;;;;;;12.52;4.53;;;19.80;99.90;;;;;;5030239;28;20034;-79
2023/08/04 01:57:11;;;;;;;5.22;3.08;;;19.70;99.90;;;;;;5030324;28;20021;-80
2023/08/04 01:59:37;;;;;;;5.93;2.92;;;19.70;99.90;;;;;;5030286;28;20069;-80
2023/08/04 02:02:03;;;;;;;11.75;3.75;;;19.70;99.90;;;;;;5030285;28;20029;-80
2023/08/04 02:04:29;;;;;;;8.02;4.03;;;19.60;99.90;;;;;;5029958;28;20065;-80
2023/08/04 02:06:54;;;;;;;5.50;3.35;;;19.60;99.90;;;;;;5030007;28;20030;-79
2023/08/04 02:09:22;;;;;;;6.70;3.80;;;19.60;99.90;;;;;;5029876;28;20095;-79
2023/08/04 02:11:48;;;;;;;8.40;4.32;;;19.60;99.90;;;;;;5029796;28;20072;-79
2023/08/04 02:14:15;;;;;;;9.52;4.70;;;19.60;99.90;;;;;;5030070;28;20045;-79
2023/08/04 02:16:40;;;;;;;9.10;3.75;;;19.60;99.90;;;;;;5029752;28;20017;-79
2023/08/04 02:19:09;;;;;;;9.02;3.38;;;19.60;99.90;;;;;;5029856;28;20107;-79
2023/08/04 02:21:35;;;;;;;5.32;2.50;;;19.60;99.90;;;;;;5029898;28;20022;-80
2023/08/04 02:24:02;;;;;;;6.15;2.15;;;19.60;99.90;;;;;;5029818;28;20076;-79
2023/08/04 02:26:27;;;;;;;4.70;2.13;;;19.60;99.90;;;;;;5029751;28;20025;-79
2023/08/04 02:28:54;;;;;;;3.20;1.90;;;19.60;99.90;;;;;;5029557;28;20034;-78
2023/08/04 02:31:22;;;;;;;7.68;2.75;;;19.60;99.90;;;;;;5029578;28;20029;-79
2023/08/04 02:33:48;;;;;;;4.53;2.25;;;19.60;99.90;;;;;;5029522;28;20094;-77
2023/08/04 02:36:14;;;;;;;5.00;2.15;;;19.60;99.90;;;;;;5029637;28;20041;-76
2023/08/04 02:38:40;;;;;;;3.85;1.98;;;19.70;99.90;;;;;;5029597;28;20134;-78
2023/08/04 02:41:08;;;;;;;2.92;1.58;;;19.70;99.90;;;;;;5029507;28;20028;-78
2023/08/04 02:43:34;;;;;;;4.63;1.75;;;19.70;99.90;;;;;;5029380;28;20061;-78
2023/08/04 02:46:00;;;;;;;5.22;1.88;;;19.70;99.90;;;;;;5029395;28;20064;-78
2023/08/04 02:48:25;;;;;;;4.30;2.08;;;19.80;99.90;;;;;;5029057;28;20044;-77
2023/08/04 02:51:02;;;;;;;5.10;2.05;;;19.80;99.90;;;;;;5028614;28;20034;-78
2023/08/04 02:53:28;;;;;;;6.82;2.35;;;19.80;99.90;;;;;;5029301;28;20104;-78
2023/08/04 02:55:54;;;;;;;10.95;2.83;;;19.80;99.90;;;;;;5029077;28;20116;-77
2023/08/04 02:58:19;;;;;;;8.02;2.00;;;19.80;99.90;;;;;;5027945;28;20030;-77
2023/08/04 03:00:46;;;;;;;6.55;2.50;;;19.70;99.90;;;;;;5029471;28;20025;-78
2023/08/04 03:03:11;;;;;;;5.88;2.17;;;19.60;99.90;;;;;;5029007;28;20030;-79
2023/08/04 03:05:37;;;;;;;10.55;2.15;;;19.50;99.90;;;;;;5029204;28;20029;-78
2023/08/04 03:08:03;;;;;;;5.95;2.30;;;19.50;99.90;;;;;;5027628;28;20029;-78
2023/08/04 03:10:28;;;;;;;5.40;1.90;;;19.50;99.90;;;;;;5029288;28;20494;-77
2023/08/04 03:12:54;;;;;;;5.32;2.22;;;19.50;99.90;;;;;;5028989;28;20048;-77
2023/08/04 03:15:20;;;;;;;6.20;2.30;;;19.50;99.90;;;;;;5027698;28;20087;-77
2023/08/04 03:17:45;;;;;;;7.22;2.08;;;19.50;99.90;;;;;;5029051;28;20021;-77
2023/08/04 03:20:11;;;;;;;8.00;1.88;;;19.50;99.90;;;;;;5029060;28;20521;-77
2023/08/04 03:22:36;;;;;;;7.20;2.40;;;19.50;99.90;;;;;;5028894;28;20053;-79
2023/08/04 03:25:02;;;;;;;7.70;2.00;;;19.50;99.90;;;;;;5028942;28;20036;-79
2023/08/04 03:27:28;;;;;;;4.55;2.20;;;19.50;99.90;;;;;;5027625;28;20028;-80
2023/08/04 03:29:54;;;;;;;5.75;2.70;;;19.60;99.90;;;;;;5028860;28;20037;-82
2023/08/04 03:32:19;;;;;;;6.18;2.38;;;19.60;99.90;;;;;;5028978;28;20041;-79
2023/08/04 03:34:45;;;;;;;4.75;2.60;;;19.60;99.90;;;;;;5027474;28;20029;-81
2023/08/04 03:37:10;;;;;;;4.25;2.22;;;19.70;99.90;;;;;;5027453;28;20048;-80
2023/08/04 03:39:36;;;;;;;6.90;2.10;;;19.70;99.90;;;;;;5028905;28;20028;-80
2023/08/04 03:42:02;;;;;;;4.90;3.08;;;19.70;99.90;;;;;;5028473;28;20029;-78
2023/08/04 03:44:28;;;;;;;4.68;2.83;;;19.70;99.90;;;;;;5028696;28;20030;-78
2023/08/04 03:46:53;;;;;;;5.47;3.13;;;19.80;99.90;;;;;;5028912;28;20029;-79
2023/08/04 03:49:19;;;;;;;5.93;3.22;;;19.80;99.90;;;;;;5028989;28;20038;-79
2023/08/04 03:51:44;;;;;;;6.05;3.25;;;19.90;99.90;;;;;;5028872;28;20040;-79
2023/08/04 03:54:10;;;;;;;9.65;3.30;;;19.90;99.90;;;;;;5028756;28;20490;-80
2023/08/04 03:56:36;;;;;;;6.32;3.05;;;19.80;99.90;;;;;;5027209;28;20055;-80
2023/08/04 03:59:01;;;;;;;6.18;2.95;;;19.90;99.90;;;;;;5028586;28;20029;-79
2023/08/04 04:01:27;;;;;;;10.05;3.05;;;19.80;99.90;;;;;;5027898;28;20045;-78
2023/08/04 04:03:53;;;;;;;7.95;3.10;;;19.90;99.90;;;;;;5030665;28;20017;-77
2023/08/04 04:06:19;;;;;;;7.45;2.75;;;19.90;99.90;;;;;;5031112;28;20486;-77
2023/08/04 04:08:45;;;;;;;9.77;2.92;;;19.90;99.90;;;;;;5032314;28;20065;-78
2023/08/04 04:11:11;;;;;;;3.72;2.15;;;19.90;99.90;;;;;;5032324;28;20136;-79
2023/08/04 04:13:37;;;;;;;6.13;3.08;;;19.90;99.90;;;;;;5032305;28;20053;-79
2023/08/04 04:16:03;;;;;;;8.63;2.90;;;19.90;99.90;;;;;;5031812;28;20038;-78
2023/08/04 04:18:28;;;;;;;4.82;2.47;;;19.80;99.90;;;;;;5031964;28;20032;-78
2023/08/04 04:20:54;;;;;;;5.57;2.50;;;19.80;99.90;;;;;;5032055;28;20053;-77
2023/08/04 04:23:20;;;;;;;5.85;2.78;;;19.90;99.90;;;;;;5031775;28;20045;-77
2023/08/04 04:25:45;;;;;;;8.65;3.30;;;19.80;99.90;;;;;;5031656;28;20524;-78
2023/08/04 04:28:11;;;;;;;5.57;2.60;;;19.90;99.90;;;;;;5031692;28;20025;-77
2023/08/04 04:30:37;;;;;;;4.63;2.20;;;19.90;99.90;;;;;;5031816;28;20502;-77
2023/08/04 04:33:02;;;;;;;4.55;1.98;;;19.90;99.90;;;;;;5031813;28;20048;-77
2023/08/04 04:35:28;;;;;;;3.95;2.05;;;19.90;99.90;;;;;;5031733;28;20112;-80
2023/08/04 04:37:53;;;;;;;4.25;1.52;;;19.90;99.90;;;;;;5031328;28;20061;-78
2023/08/04 04:40:19;;;;;;;6.15;2.15;;;19.80;99.90;;;;;;5030066;28;20116;-81
2023/08/04 04:42:45;;;;;;;5.53;1.67;;;19.90;99.90;;;;;;5031724;28;20091;-81
2023/08/04 04:45:11;;;;;;;4.60;1.80;;;19.90;99.90;;;;;;5031379;28;20069;-80
2023/08/04 04:47:36;;;;;;;4.40;1.85;;;19.90;99.90;;;;;;5031767;28;20038;-79
2023/08/04 04:50:02;;;;;;;3.25;1.73;;;19.90;99.90;;;;;;5031436;28;20033;-78
2023/08/04 04:52:36;;;;;;;4.22;1.42;;;19.90;99.90;;;;;;5031604;28;20561;-78
2023/08/04 04:55:03;;;;;;;2.63;1.42;;;20.00;99.90;;;;;;5031114;28;20033;-79
2023/08/04 04:57:29;;;;;;;6.03;1.60;;;20.00;99.90;;;;;;5031506;28;20405;-79
2023/08/04 04:59:55;;;;;;;8.45;1.80;;;20.00;99.90;;;;;;5029840;28;20030;-78
2023/08/04 05:02:21;;;;;;;2.58;1.20;;;20.10;99.90;;;;;;5031224;28;20095;-77
2023/08/04 05:04:47;;;;;;;3.72;1.98;;;20.10;99.90;;;;;;5031052;28;20026;-78
2023/08/04 05:07:13;;;;;;;6.50;1.52;;;20.20;99.90;;;;;;5041050;28;20040;-79
2023/08/04 05:09:39;;;;;;;2.63;1.40;;;20.30;99.90;;;;;;5029694;28;20037;-78
2023/08/04 05:12:05;;;;;;;2.80;1.80;;;20.40;99.90;;;;;;5039202;28;20049;-78
2023/08/04 05:14:31;;;;;;;2.75;1.67;;;20.40;99.90;;;;;;5037717;28;20033;-78
2023/08/04 05:16:57;;;;;;;7.10;1.77;;;20.50;99.90;;;;;;5048377;28;20033;-79
2023/08/04 05:19:22;;;;;;;2.65;1.52;;;20.60;99.90;;;;;;5050772;28;20052;-77
2023/08/04 05:21:48;;;;;;;2.70;1.58;;;20.60;99.90;;;;;;5050757;28;20439;-78
2023/08/04 05:24:14;;;;;;;4.63;1.48;;;20.60;99.90;;;;;;5033386;28;20029;-79
2023/08/04 05:26:39;;;;;;;1.75;0.80;;;20.60;99.90;;;;;;5030836;28;20034;-79
2023/08/04 05:29:05;;;;;;;2.50;1.30;;;20.50;99.90;;;;;;5042699;28;20040;-79
2023/08/04 05:31:32;;;;;;;5.43;2.38;;;20.40;99.90;;;;;;5042237;28;20211;-78
2023/08/04 05:34:00;;;;;;;6.60;2.22;;;20.40;99.90;;;;;;5030716;28;20029;-78
2023/08/04 05:36:26;;;;;;;7.82;2.40;;;20.30;99.90;;;;;;5030737;28;20064;-79
2023/08/04 05:38:52;;;;;;;4.97;2.53;;;20.30;99.90;;;;;;5030868;28;20061;-78
2023/08/04 05:41:18;;;;;;;5.97;2.45;;;20.30;99.90;;;;;;5041240;28;20033;-79
2023/08/04 05:43:43;;;;;;;4.43;2.17;;;20.30;99.90;;;;;;5045470;28;20501;-78
2023/08/04 05:46:12;;;;;;;3.88;1.88;;;20.30;99.90;;;;;;5029042;28;20120;-78
2023/08/04 05:48:38;;;;;;;3.65;1.95;;;20.30;99.90;;;;;;5030531;28;20100;-77
2023/08/04 05:51:05;;;;;;;3.25;1.40;;;20.40;99.90;;;;;;5030404;28;20571;-78
2023/08/04 05:53:30;;;;;;;4.07;1.27;;;20.50;99.90;;;;;;5030302;28;20037;-78
2023/08/04 05:55:56;;;;;;;4.25;1.88;;;20.60;99.90;;;;;;5030041;28;20037;-79
2023/08/04 05:58:22;;;;;;;3.50;1.70;;;20.70;99.90;;;;;;5030465;28;20032;-78
2023/08/04 06:00:47;;;;;;;3.53;1.65;;;20.90;99.90;;;;;;5030281;28;20583;-77
2023/08/04 06:03:13;;;;;;;5.53;2.78;;;21.00;99.90;;;;;;5029016;28;20021;-76
2023/08/04 06:05:39;;;;;;;5.25;2.47;;;21.30;99.90;;;;;;5029970;28;20418;-78
2023/08/04 06:08:04;;;;;;;4.72;2.28;;;21.40;99.90;;;;;;5030026;28;20557;-79
2023/08/04 06:10:30;;;;;;;4.75;2.38;;;21.50;99.90;;;;;;5031302;28;20056;-85
2023/08/04 06:12:56;;;;;;;4.32;2.55;;;21.60;99.90;;;;;;5032877;28;20073;-85
2023/08/04 06:15:22;;;;;;;5.53;2.47;;;21.80;99.90;;;;;;5031623;28;20033;-86
2023/08/04 06:17:48;;;;;;;3.83;2.50;;;21.90;99.90;;;;;;5032838;28;20021;-86
2023/08/04 06:20:14;;;;;;;3.17;1.98;;;22.00;99.90;;;;;;5032383;28;20486;-77
2023/08/04 06:22:41;;;;;;;5.63;2.03;;;22.00;99.90;;;;;;5029826;28;20049;-78
2023/08/04 06:25:06;;;;;;;3.83;1.70;;;22.10;99.90;;;;;;5029221;28;20552;-79
2023/08/04 06:27:33;;;;;;;5.53;2.05;;;22.00;99.90;;;;;;5029424;28;20033;-78
2023/08/04 06:29:59;;;;;;;3.78;2.22;;;22.00;99.90;;;;;;5029311;28;20064;-79
2023/08/04 06:32:25;;;;;;;7.38;2.83;;;22.10;99.90;;;;;;5028221;28;20029;-78
2023/08/04 06:34:51;;;;;;;6.65;2.78;;;22.10;99.90;;;;;;5029343;28;20544;-77
2023/08/04 06:37:17;;;;;;;8.95;4.13;;;22.10;99.90;;;;;;5029464;28;20033;-78
2023/08/04 06:39:42;;;;;;;7.72;5.90;;;22.20;99.90;;;;;;5029188;28;20506;-77
2023/08/04 06:42:08;;;;;;;12.95;7.82;;;22.40;99.90;;;;;;5040451;28;20028;-78
2023/08/04 06:44:34;;;;;;;9.38;7.80;;;22.60;99.90;;;;;;5029042;28;20083;-79
2023/08/04 06:46:59;;;;;;;10.82;6.78;;;23.00;99.90;;;;;;5031469;28;20044;-78
2023/08/04 06:49:25;;;;;;;8.52;5.05;;;23.40;99.90;;;;;;5045404;28;20044;-78
2023/08/04 06:51:51;;;;;;;6.40;4.97;;;23.90;99.90;;;;;;5029080;28;20053;-79
2023/08/04 06:54:17;;;;;;;6.20;4.85;;;24.70;99.90;;;;;;5034072;28;20578;-78
2023/08/04 06:56:42;;;;;;;7.28;3.95;;;25.20;99.90;;;;;;5037802;28;20087;-79
2023/08/04 06:59:08;;;;;;;5.22;3.03;;;25.80;99.90;;;;;;5034093;28;20025;-79
2023/08/04 07:01:34;;;;;;;1.52;0.95;;;26.80;99.90;;;;;;5028751;28;20068;-79
2023/08/04 07:03:59;;;;;;;1.58;0.68;;;27.50;99.90;;;;;;5028657;28;20659;-79
2023/08/04 07:06:25;;;;;;;2.20;1.27;;;27.80;99.90;;;;;;5029003;28;20061;-79
2023/08/04 07:08:50;;;;;;;2.60;1.02;;;28.00;99.90;;;;;;5034236;28;20037;-79
2023/08/04 07:11:17;;;;;;;3.15;2.60;;;27.70;99.90;;;;;;5048829;28;20033;-79
2023/08/04 07:13:46;;;;;;;7.47;3.63;;;28.10;99.90;;;;;;5044280;28;20062;-79
2023/08/04 07:16:12;;;;;;;6.95;2.78;;;28.80;99.90;;;;;;5047378;28;20511;-79
2023/08/04 07:18:38;;;;;;;5.20;2.30;;;29.50;99.90;;;;;;5039328;28;20136;-78
2023/08/04 07:21:11;;;;;;;3.67;2.20;;;29.80;99.90;;;;;;5037445;28;20040;-79
2023/08/04 07:23:38;;;;;;;4.25;3.17;;;29.90;99.90;;;;;;5035381;28;20105;-78
2023/08/04 07:26:04;;;;;;;4.43;2.55;;;30.20;99.90;;;;;;5045797;28;20098;-79
2023/08/04 07:28:31;;;;;;;4.07;1.90;;;30.70;99.90;;;;;;5048558;28;20029;-80
2023/08/04 07:30:59;;;;;;;3.00;2.05;;;30.90;99.90;;;;;;5048646;28;20516;-79
2023/08/04 07:33:26;;;;;;;4.40;2.60;;;31.00;99.90;;;;;;5048646;28;20025;-79
2023/08/04 07:35:53;;;;;;;5.35;2.33;;;31.30;99.90;;;;;;5048367;28;20527;-79
2023/08/04 07:38:20;;;;;;;2.38;1.60;;;31.50;99.90;;;;;;5052054;28;20025;-79
2023/08/04 07:40:45;;;;;;;6.57;2.92;;;31.10;99.90;;;;;;5051534;28;20033;-79
2023/08/04 07:43:12;;;;;;;3.15;2.15;;;30.70;99.90;;;;;;5052429;28;20086;-79
2023/08/04 07:45:38;;;;;;;3.65;2.00;;;30.50;99.90;;;;;;5038940;28;20405;-79
2023/08/04 07:48:04;;;;;;;7.72;1.90;;;30.90;99.90;;;;;;5032513;28;20028;-80
2023/08/04 07:50:29;;;;;;;10.00;3.10;;;31.00;99.90;;;;;;5032233;28;20044;-80
2023/08/04 07:52:55;;;;;;;3.53;2.50;;;31.00;99.30;;;;;;5030672;28;20026;-77
2023/08/04 07:55:21;;;;;;;8.75;2.65;;;31.50;98.50;;;;;;5030731;28;20025;-76
2023/08/04 07:57:47;;;;;;;5.03;2.78;;;31.80;98.90;;;;;;5031709;28;20028;-78
2023/08/04 08:00:13;;;;;;;2.60;2.10;;;32.10;96.90;;;;;;5030881;28;20033;-77
2023/08/04 08:02:39;;;;;;;4.38;2.42;;;32.30;94.50;;;;;;5031930;28;20036;-78
2023/08/04 08:05:05;;;;;;;3.47;2.22;;;32.80;90.30;;;;;;5032151;28;20030;-80
2023/08/04 08:07:31;;;;;;;5.97;2.08;;;32.90;91.90;;;;;;5032075;28;20414;-77
2023/08/04 08:09:57;;;;;;;7.30;2.88;;;33.10;90.90;;;;;;5031916;28;20044;-78
2023/08/04 08:12:22;;;;;;;4.25;2.78;;;32.70;90.40;;;;;;5031913;28;20052;-77
2023/08/04 08:14:48;;;;;;;5.07;2.90;;;32.30;93.00;;;;;;5031808;28;20060;-79
2023/08/04 08:17:13;;;;;;;5.68;2.72;;;32.40;92.70;;;;;;5032042;28;20025;-77
2023/08/04 08:19:39;;;;;;;6.05;2.58;;;32.50;93.60;;;;;;5031713;28;20041;-77
2023/08/04 08:22:05;;;;;;;5.15;3.25;;;32.80;92.20;;;;;;5031560;28;20080;-78
2023/08/04 08:24:30;;;;;;;6.65;3.30;;;32.90;91.10;;;;;;5031726;28;20422;-77
2023/08/04 08:26:56;;;;;;;9.07;3.38;;;32.90;90.40;;;;;;5031935;28;20017;-77
2023/08/04 08:29:22;;;;;;;6.90;3.30;;;33.10;92.30;;;;;;5031628;28;20033;-79
2023/08/04 08:31:47;;;;;;;5.22;3.05;;;33.60;90.80;;;;;;5030148;28;20255;-77
2023/08/04 08:34:13;;;;;;;12.95;3.67;;;33.90;85.50;;;;;;5031571;28;20025;-77
2023/08/04 08:36:39;;;;;;;8.75;3.97;;;33.80;85.10;;;;;;5031597;28;20445;-78
2023/08/04 08:39:04;;;;;;;8.63;3.35;;;33.60;85.70;;;;;;5031589;28;20064;-77
2023/08/04 08:41:30;;;;;;;6.10;2.90;;;33.30;91.00;;;;;;5031552;28;20109;-77
2023/08/04 08:43:56;;;;;;;4.63;2.88;;;33.00;90.40;;;;;;5031308;28;20088;-79
2023/08/04 08:46:21;;;;;;;6.97;3.17;;;32.60;91.10;;;;;;5031371;28;20553;-79
2023/08/04 08:48:49;;;;;;;13.48;2.67;;;32.00;92.40;;;;;;5030294;28;20433;-77
2023/08/04 08:51:20;;;;;;;4.63;3.58;;;31.60;95.10;;;;;;5031360;28;20049;-77
2023/08/04 08:53:49;;;;;;;7.80;3.40;;;31.20;97.70;;;;;;5031241;28;20025;-78
2023/08/04 08:56:16;;;;;;;9.05;6.32;;;30.60;99.90;;;;;;5031106;28;20087;-76
2023/08/04 08:58:42;;;;;;;6.25;3.35;;;30.50;99.90;;;;;;5030602;28;20493;-76
2023/08/04 09:01:08;;;;;;;4.78;3.55;;;30.30;99.90;;;;;;5030871;28;20052;-77
2023/08/04 09:03:35;;;;;;;5.22;3.88;;;30.40;99.90;;;;;;5030924;28;20045;-78
2023/08/04 09:06:01;;;;;;;5.53;3.20;;;30.50;99.90;;;;;;5030557;28;20033;-76
2023/08/04 09:08:30;;;;;;;5.40;3.80;;;30.60;99.90;;;;;;5030908;28;20030;-77
2023/08/04 09:10:58;;;;;;;11.52;4.32;;;31.00;99.90;;;;;;5028732;28;20029;-76
2023/08/04 09:13:23;;;;;;;14.00;6.18;;;31.30;99.90;;;;;;5030536;28;20038;-78
2023/08/04 09:15:52;;;;;;;4.93;3.70;;;31.30;99.30;;;;;;5030611;28;20371;-76
2023/08/04 09:18:33;;;;;;;5.25;3.28;;;31.60;98.90;;;;;;5029413;28;20105;-79
2023/08/04 09:21:09;;;;;;;3.50;2.50;;;32.10;97.00;;;;;;5029449;28;20032;-76
2023/08/04 09:23:49;;;;;;;5.65;2.80;;;32.80;93.80;;;;;;5027915;28;20029;-78
2023/08/04 09:26:15;;;;;;;5.72;2.33;;;33.20;89.10;;;;;;5029014;28;20029;-77
2023/08/04 09:28:41;;;;;;;4.75;2.53;;;33.20;88.00;;;;;;5028768;28;20516;-76
2023/08/04 09:31:09;;;;;;;9.20;3.97;;;33.20;90.50;;;;;;5028917;28;20649;-80
2023/08/04 09:33:38;;;;;;;3.92;2.50;;;33.30;88.30;;;;;;5028831;28;20029;-80
2023/08/04 09:36:06;;;;;;;4.72;2.80;;;33.10;82.50;;;;;;5028726;28;20036;-80
2023/08/04 09:38:33;;;;;;;5.07;2.38;;;32.50;87.00;;;;;;5029533;28;20072;-80
2023/08/04 09:41:06;;;;;;;4.63;2.28;;;32.00;90.40;;;;;;5030387;28;20026;-77
2023/08/04 09:43:32;;;;;;;6.03;3.08;;;31.50;92.40;;;;;;5030246;28;20033;-76
2023/08/04 09:46:06;;;;;;;34.97;9.18;;;31.30;94.80;;;;;;5030230;28;20433;-77
2023/08/04 09:48:32;;;;;;;27.00;8.95;;;31.40;95.90;;;;;;5030084;28;20033;-78
2023/08/04 09:51:12;;;;;;;9.07;3.53;;;31.90;95.50;;;;;;5029942;28;20037;-80
2023/08/04 09:53:43;;;;;;;5.18;2.25;;;32.30;93.30;;;;;;5029812;28;20022;-80
2023/08/04 09:56:10;;;;;;;4.70;2.20;;;32.20;90.80;;;;;;5029592;28;20091;-80
2023/08/04 09:58:36;;;;;;;3.55;2.03;;;31.90;93.00;;;;;;5029739;28;20021;-79
2023/08/04 10:01:03;;;;;;;5.80;2.00;;;31.90;92.10;;;;;;5029478;28;20100;-79
2023/08/04 10:03:29;;;;;;;6.28;2.53;;;31.80;93.00;;;;;;5040957;28;20056;-77
2023/08/04 10:05:59;;;;;;;8.00;1.83;;;31.60;93.40;;;;;;5042547;28;20401;-78
2023/08/04 10:08:33;;;;;;;4.35;2.00;;;31.30;95.50;;;;;;5040873;28;20017;-78
2023/08/04 10:10:59;;;;;;;6.68;2.15;;;31.50;96.00;;;;;;5031645;28;20490;-78
2023/08/04 10:13:27;;;;;;;4.07;2.00;;;31.70;96.30;;;;;;5038965;28;20079;-77
2023/08/04 10:15:56;;;;;;;4.60;2.83;;;31.70;95.90;;;;;;5040204;28;20166;-80
2023/08/04 10:18:24;;;;;;;7.13;1.88;;;31.60;95.70;;;;;;5048221;28;20111;-79
2023/08/04 10:20:52;;;;;;;3.75;1.83;;;31.30;95.50;;;;;;5049413;28;20135;-78
2023/08/04 10:23:18;;;;;;;2.25;1.75;;;31.00;96.30;;;;;;5042332;28;20021;-78
2023/08/04 10:25:55;;;;;;;3.03;1.60;;;30.80;96.80;;;;;;5029466;28;20037;-78
2023/08/04 10:28:21;;;;;;;2.58;1.60;;;30.60;96.80;;;;;;5039834;28;20448;-78
2023/08/04 10:30:47;;;;;;;3.97;1.77;;;30.40;97.60;;;;;;5027979;28;20037;-78
2023/08/04 10:33:12;;;;;;;4.00;1.90;;;30.20;99.00;;;;;;5029094;28;20087;-78
2023/08/04 10:36:08;;;;;;;2.58;1.55;;;30.00;99.90;;;;;;5049169;28;20041;-78
2023/08/04 10:38:47;;;;;;;2.67;1.58;;;29.80;99.90;;;;;;5047635;28;20025;-77
2023/08/04 10:41:14;;;;;;;4.50;1.40;;;29.70;99.90;;;;;;5049039;28;20577;-78
2023/08/04 10:43:40;;;;;;;3.67;1.67;;;29.60;99.90;;;;;;5044536;28;20076;-78
2023/08/04 10:46:10;;;;;;;3.08;1.33;;;29.80;99.90;;;;;;5038908;28;20025;-78
2023/08/04 10:48:40;;;;;;;3.10;1.30;;;29.90;98.90;;;;;;5042893;28;20076;-78
2023/08/04 10:51:07;;;;;;;2.45;1.00;;;29.80;99.50;;;;;;5043200;28;20041;-78
2023/08/04 10:53:33;;;;;;;3.28;1.27;;;29.80;98.60;;;;;;5040337;28;20021;-78
2023/08/04 10:56:00;;;;;;;4.25;1.80;;;29.60;93.10;;;;;;5040031;28;20810;-77
2023/08/04 10:58:27;;;;;;;2.88;1.38;;;29.40;94.50;;;;;;5037881;28;20020;-78
2023/08/04 11:00:55;;;;;;;6.80;2.00;;;29.30;94.90;;;;;;5035949;28;20025;-78
2023/08/04 11:03:28;;;;;;;2.70;1.50;;;29.10;95.10;;;;;;5040827;28;20580;-78
2023/08/04 11:05:55;;;;;;;3.30;1.52;;;28.80;96.30;;;;;;5048644;28;20553;-77
2023/08/04 11:08:22;;;;;;;4.03;1.30;;;28.60;98.60;;;;;;5048772;28;20555;-78
2023/08/04 11:10:56;;;;;;;3.13;1.20;;;28.80;99.90;;;;;;5048521;28;20375;-78
2023/08/04 11:13:23;;;;;;;3.10;1.05;;;29.20;99.90;;;;;;5037874;28;20048;-78
2023/08/04 11:15:50;;;;;;;4.78;1.30;;;29.70;99.00;;;;;;5035890;28;20017;-77
2023/08/04 11:18:23;;;;;;;7.78;1.50;;;29.80;95.50;;;;;;5037829;28;20017;-78
2023/08/04 11:20:49;;;;;;;5.88;1.40;;;29.70;93.80;;;;;;5037750;28;20022;-78
2023/08/04 11:23:22;;;;;;;3.13;2.00;;;29.60;93.20;;;;;;5037408;28;20492;-79
2023/08/04 11:25:48;;;;;;;4.68;1.73;;;29.40;93.90;;;;;;5038868;28;20033;-78
2023/08/04 11:28:13;;;;;;;4.35;2.00;;;29.20;95.40;;;;;;5038570;28;20043;-78
2023/08/04 11:30:39;;;;;;;6.20;1.90;;;29.10;94.90;;;;;;5040135;28;20041;-78
2023/08/04 11:33:07;;;;;;;5.93;1.85;;;29.20;94.60;;;;;;5029442;28;20041;-81
2023/08/04 11:35:32;;;;;;;5.40;2.03;;;29.20;96.60;;;;;;5028177;28;20044;-80
2023/08/04 11:38:04;;;;;;;7.03;2.45;;;29.30;97.20;;;;;;5026797;28;20025;-78
2023/08/04 11:40:31;;;;;;;10.23;1.75;;;29.30;98.50;;;;;;5028381;28;20030;-78
2023/08/04 11:43:00;;;;;;;3.50;1.73;;;29.20;99.50;;;;;;5027955;28;20029;-77
2023/08/04 11:45:30;;;;;;;4.70;2.47;;;29.30;97.40;;;;;;5028074;28;20036;-76
2023/08/04 11:47:56;;;;;;;6.93;2.50;;;29.20;99.20;;;;;;5028474;28;20053;-78
2023/08/04 11:50:23;;;;;;;3.30;1.88;;;29.20;99.80;;;;;;5026789;28;20457;-80
2023/08/04 11:52:49;;;;;;;3.40;1.80;;;29.40;99.50;;;;;;5028259;28;20029;-78
2023/08/04 11:55:15;;;;;;;3.92;1.77;;;29.70;98.50;;;;;;5028326;28;20379;-78
2023/08/04 11:57:51;;;;;;;10.00;2.47;;;29.80;96.10;;;;;;5026869;28;20029;-78
2023/08/04 12:00:32;;;;;;;4.53;2.05;;;30.00;95.00;;;;;;5028448;28;20025;-78
2023/08/04 12:02:59;;;;;;;5.13;2.10;;;30.10;95.30;;;;;;5028308;28;20085;-77
2023/08/04 12:05:32;;;;;;;4.75;2.75;;;30.20;91.50;;;;;;5028051;28;20040;-77
2023/08/04 12:07:59;;;;;;;3.42;2.03;;;30.30;92.20;;;;;;5027929;28;20029;-77
2023/08/04 12:10:26;;;;;;;4.25;1.98;;;30.50;93.10;;;;;;5028123;28;20037;-78
2023/08/04 12:12:52;;;;;;;2.83;1.80;;;30.70;92.80;;;;;;5027796;28;20435;-77
2023/08/04 12:15:18;;;;;;;4.65;1.70;;;30.80;92.10;;;;;;5027996;28;20080;-77
2023/08/04 12:17:44;;;;;;;2.95;1.80;;;30.90;90.30;;;;;;5026644;28;20029;-78
2023/08/04 12:20:11;;;;;;;2.88;2.08;;;31.00;91.40;;;;;;5026711;28;20033;-77
2023/08/04 12:22:38;;;;;;;4.10;2.40;;;31.30;92.20;;;;;;5027944;28;20025;-77
2023/08/04 12:25:07;;;;;;;3.60;2.20;;;31.40;91.70;;;;;;5030650;28;20402;-78
2023/08/04 12:27:34;;;;;;;4.18;2.17;;;31.50;90.50;;;;;;5031725;28;20525;-78
2023/08/04 12:30:00;;;;;;;3.42;2.35;;;31.60;90.50;;;;;;5031509;28;20120;-76
2023/08/04 12:32:26;;;;;;;3.65;2.40;;;31.50;86.30;;;;;;5031252;28;20486;-76
2023/08/04 12:34:52;;;;;;;4.53;2.47;;;31.30;88.20;;;;;;5031183;28;20030;-78
2023/08/04 12:37:17;;;;;;;2.65;2.33;;;31.10;89.60;;;;;;5030914;28;20087;-78
2023/08/04 12:39:46;;;;;;;4.50;2.45;;;31.10;88.70;;;;;;5029731;28;20037;-76
2023/08/04 12:42:12;;;;;;;4.20;2.70;;;31.00;88.80;;;;;;5031031;28;20108;-78
2023/08/04 12:44:37;;;;;;;7.40;2.13;;;30.90;92.50;;;;;;5031137;28;20112;-77